createdAt,value
2023-03-28T00:02:09.219Z,70.20
2023-03-28T00:04:37.281Z,70.20
2023-03-28T00:07:04.237Z,70.30
2023-03-28T00:09:31.639Z,70.40
2023-03-28T00:11:58.309Z,70.70
2023-03-28T00:14:25.513Z,70.80
2023-03-28T00:16:52.165Z,71.10
2023-03-28T00:19:20.588Z,71.10
2023-03-28T00:21:49.882Z,71.10
2023-03-28T00:24:21.264Z,71.00
2023-03-28T00:26:54.201Z,71.00
2023-03-28T00:29:22.575Z,71.00
2023-03-28T00:31:50.254Z,71.00
2023-03-28T00:34:17.222Z,71.00
2023-03-28T00:36:44.040Z,70.90
2023-03-28T00:39:11.429Z,70.80
2023-03-28T00:41:42.228Z,70.80
2023-03-28T00:44:46.747Z,70.70
2023-03-28T00:47:43.790Z,71.10
2023-03-28T00:50:16.351Z,70.50
2023-03-28T00:52:56.802Z,70.20
2023-03-28T00:55:31.624Z,69.90
2023-03-28T00:57:58.929Z,70.00
2023-03-28T01:00:26.405Z,70.80
2023-03-28T01:02:56.613Z,69.90
2023-03-28T01:05:27.293Z,70.00
2023-03-28T01:08:14.249Z,70.00
2023-03-28T01:10:42.083Z,69.90
2023-03-28T01:13:12.524Z,70.20
2023-03-28T01:15:40.467Z,70.20
2023-03-28T01:18:11.372Z,70.40
2023-03-28T01:21:06.226Z,70.70
2023-03-28T01:24:11.708Z,71.00
2023-03-28T01:26:49.200Z,71.00
2023-03-28T01:29:43.866Z,71.00
2023-03-28T01:32:28.698Z,71.20
2023-03-28T01:35:21.317Z,71.40
2023-03-28T01:38:25.128Z,71.40
2023-03-28T01:41:16.207Z,71.60
2023-03-28T01:43:53.889Z,71.60
2023-03-28T01:46:28.411Z,71.70
2023-03-28T01:49:18.146Z,71.70
2023-03-28T01:52:01.135Z,71.40
2023-03-28T01:54:37.669Z,71.60
2023-03-28T01:57:21.666Z,71.60
2023-03-28T01:59:54.716Z,71.60
2023-03-28T02:02:39.185Z,71.80
2023-03-28T02:05:11.629Z,71.70
2023-03-28T02:07:44.377Z,72.00
2023-03-28T02:10:13.857Z,72.40
2023-03-28T02:12:51.784Z,72.10
2023-03-28T02:15:21.678Z,71.80
2023-03-28T02:17:53.478Z,71.90
2023-03-28T02:20:24.791Z,72.20
2023-03-28T02:22:59.358Z,72.50
2023-03-28T02:25:26.204Z,72.80
2023-03-28T02:27:56.905Z,72.70
2023-03-28T02:30:23.785Z,73.30
2023-03-28T02:32:51.486Z,73.50
2023-03-28T02:35:23.861Z,73.70
2023-03-28T02:38:10.417Z,73.70
2023-03-28T02:41:03.136Z,74.00
2023-03-28T02:44:05.317Z,74.20
2023-03-28T02:46:50.275Z,74.30
2023-03-28T02:49:43.822Z,74.20
2023-03-28T02:52:34.814Z,74.40
2023-03-28T02:55:13.311Z,74.10
2023-03-28T02:57:52.201Z,73.90
2023-03-28T03:00:20.513Z,73.30
2023-03-28T03:02:51.853Z,73.00
2023-03-28T03:05:20.774Z,73.20
2023-03-28T03:07:49.732Z,73.10
2023-03-28T03:10:17.157Z,72.80
2023-03-28T03:12:44.207Z,72.90
2023-03-28T03:15:11.791Z,73.00
2023-03-28T03:17:38.875Z,73.00
2023-03-28T03:20:07.376Z,72.90
2023-03-28T03:22:36.329Z,72.60
2023-03-28T03:25:06.789Z,72.40
2023-03-28T03:27:35.107Z,72.50
2023-03-28T03:30:02.040Z,72.50
2023-03-28T03:32:28.801Z,72.80
2023-03-28T03:34:55.737Z,73.00
2023-03-28T03:37:22.491Z,72.90
2023-03-28T03:39:49.160Z,73.00
2023-03-28T03:42:15.871Z,72.60
2023-03-28T03:44:42.953Z,72.90
2023-03-28T03:47:09.652Z,72.70
2023-03-28T03:49:36.300Z,72.70
2023-03-28T03:52:03.261Z,72.90
2023-03-28T03:54:29.989Z,72.80
2023-03-28T03:56:56.697Z,72.00
2023-03-28T03:59:23.490Z,71.70
2023-03-28T04:01:50.136Z,71.50
2023-03-28T04:04:17.379Z,71.30
2023-03-28T04:06:44.047Z,71.60
2023-03-28T04:09:10.729Z,71.90
2023-03-28T04:11:37.405Z,71.90
2023-03-28T04:14:04.437Z,72.00
2023-03-28T04:16:40.282Z,72.20
2023-03-28T04:19:08.171Z,72.50
2023-03-28T04:21:35.520Z,72.60
2023-03-28T04:24:02.208Z,72.90
2023-03-28T04:26:29.981Z,73.10
2023-03-28T04:29:00.408Z,73.10
2023-03-28T04:31:29.483Z,73.10
2023-03-28T04:33:56.799Z,73.00
2023-03-28T04:36:25.663Z,73.20
2023-03-28T04:38:52.347Z,73.40
2023-03-28T04:41:19.071Z,73.20
2023-03-28T04:43:45.750Z,73.50
2023-03-28T04:46:12.455Z,73.50
2023-03-28T04:48:39.094Z,73.60
2023-03-28T04:51:06.114Z,74.20
2023-03-28T04:53:32.774Z,74.50
2023-03-28T04:56:00.165Z,74.60
2023-03-28T04:58:27.045Z,75.30
2023-03-28T05:00:54.096Z,75.60
2023-03-28T05:03:23.365Z,75.50
2023-03-28T05:05:52.767Z,75.70
2023-03-28T05:08:22.606Z,75.70
2023-03-28T05:10:50.580Z,75.80
2023-03-28T05:13:17.645Z,76.00
2023-03-28T05:15:46.109Z,76.30
2023-03-28T05:18:12.881Z,75.60
2023-03-28T05:20:39.614Z,75.30
2023-03-28T05:23:06.453Z,75.30
2023-03-28T05:25:33.523Z,74.40
2023-03-28T05:28:00.510Z,74.10
2023-03-28T05:30:27.253Z,74.10
2023-03-28T05:32:54.431Z,73.60
2023-03-28T05:35:21.210Z,73.30
2023-03-28T05:37:47.931Z,73.10
2023-03-28T05:40:15.382Z,73.40
2023-03-28T05:42:42.076Z,73.10
2023-03-28T05:45:12.310Z,73.60
2023-03-28T05:47:39.170Z,73.10
2023-03-28T05:50:06.653Z,72.70
2023-03-28T05:52:33.352Z,72.30
2023-03-28T05:55:00.141Z,72.60
2023-03-28T05:57:26.860Z,72.70
2023-03-28T05:59:53.798Z,72.30
2023-03-28T06:02:22.949Z,72.30
2023-03-28T06:04:52.480Z,72.20
2023-03-28T06:07:25.456Z,72.00
2023-03-28T06:09:58.498Z,71.20
2023-03-28T06:12:25.281Z,71.10
2023-03-28T06:14:51.941Z,71.50
2023-03-28T06:17:18.639Z,71.20
2023-03-28T06:19:45.540Z,70.90
2023-03-28T06:22:12.225Z,70.80
2023-03-28T06:24:38.894Z,71.10
2023-03-28T06:27:05.662Z,69.90
2023-03-28T06:29:32.349Z,70.40
2023-03-28T06:31:59.099Z,70.40
2023-03-28T06:34:26.052Z,70.60
2023-03-28T06:36:52.806Z,70.40
2023-03-28T06:39:19.479Z,69.50
2023-03-28T06:41:46.190Z,69.40
2023-03-28T06:44:13.090Z,68.50
2023-03-28T06:46:39.918Z,68.80
2023-03-28T06:49:06.660Z,68.20
2023-03-28T06:51:33.782Z,67.80
2023-03-28T06:54:00.680Z,68.20
2023-03-28T06:56:27.608Z,67.70
2023-03-28T06:58:54.314Z,67.20
2023-03-28T07:01:21.101Z,68.20
2023-03-28T07:03:49.916Z,68.40
2023-03-28T07:06:18.189Z,67.70
2023-03-28T07:08:45.032Z,67.40
2023-03-28T07:11:11.721Z,68.20
2023-03-28T07:13:38.403Z,68.10
2023-03-28T07:16:07.833Z,68.10
2023-03-28T07:18:34.742Z,68.30
2023-03-28T07:21:10.499Z,68.30
2023-03-28T07:23:39.284Z,68.90
2023-03-28T07:26:07.847Z,68.70
2023-03-28T07:28:35.368Z,69.40
2023-03-28T07:31:04.555Z,68.10
2023-03-28T07:33:37.362Z,67.50
2023-03-28T07:36:14.472Z,70.90
2023-03-28T07:38:41.899Z,68.70
2023-03-28T07:41:09.248Z,64.50
2023-03-28T07:43:36.297Z,65.40
2023-03-28T07:46:06.511Z,55.10
2023-03-28T07:48:34.905Z,48.30
2023-03-28T07:51:02.634Z,42.40
2023-03-28T07:53:29.369Z,41.60
2023-03-28T07:55:56.329Z,36.60
2023-03-28T07:58:23.758Z,34.10
2023-03-28T08:00:50.913Z,32.50
2023-03-28T08:03:18.798Z,35.90
2023-03-28T08:05:49.687Z,31.20
2023-03-28T08:08:16.571Z,29.30
2023-03-28T08:10:51.342Z,29.10
2023-03-28T08:13:20.776Z,28.30
2023-03-28T08:15:54.398Z,25.50
2023-03-28T08:18:22.503Z,26.10
2023-03-28T08:20:49.981Z,27.70
2023-03-28T08:23:17.502Z,24.80
2023-03-28T08:25:44.616Z,25.30
2023-03-28T08:28:11.476Z,25.30
2023-03-28T08:30:38.152Z,24.90
2023-03-28T08:33:04.886Z,22.20
2023-03-28T08:35:32.386Z,23.40
2023-03-28T08:37:59.929Z,22.20
2023-03-28T08:40:29.111Z,22.10
2023-03-28T08:43:31.054Z,20.00
2023-03-28T08:45:59.884Z,21.20
2023-03-28T08:48:37.247Z,19.00
2023-03-28T08:51:13.649Z,20.00
2023-03-28T08:53:43.959Z,18.30
2023-03-28T08:56:13.781Z,18.70
2023-03-28T08:59:04.687Z,18.40
2023-03-28T09:01:32.835Z,19.80
2023-03-28T09:04:00.970Z,21.50
2023-03-28T09:06:49.225Z,19.70
2023-03-28T09:09:38.427Z,20.40
2023-03-28T09:12:32.425Z,23.90
2023-03-28T09:15:14.223Z,21.00
2023-03-28T09:17:59.476Z,20.00
2023-03-28T09:20:41.709Z,18.90
2023-03-28T09:23:42.740Z,20.00
2023-03-28T09:26:20.133Z,18.20
2023-03-28T09:29:10.329Z,18.00
2023-03-28T09:31:48.363Z,19.30
2023-03-28T09:34:28.796Z,19.50
2023-03-28T09:37:01.344Z,18.20
2023-03-28T09:39:45.429Z,20.70
2023-03-28T09:42:17.944Z,18.80
2023-03-28T09:44:54.555Z,20.50
2023-03-28T09:47:22.318Z,20.90
2023-03-28T09:49:54.352Z,17.40
2023-03-28T09:52:26.363Z,17.70
2023-03-28T09:54:53.303Z,18.10
2023-03-28T09:57:20.220Z,16.60
2023-03-28T09:59:46.969Z,17.50
2023-03-28T10:02:32.542Z,17.10
2023-03-28T10:04:59.866Z,17.60
2023-03-28T10:07:42.448Z,16.60
2023-03-28T10:10:22.121Z,16.90
2023-03-28T10:12:49.419Z,19.00
2023-03-28T10:15:42.536Z,18.40
2023-03-28T10:18:17.669Z,25.50
2023-03-28T10:20:45.414Z,22.00
2023-03-28T10:23:13.489Z,17.10
2023-03-28T10:25:42.893Z,15.90
2023-03-28T10:28:17.369Z,18.40
2023-03-28T10:30:51.707Z,16.90
2023-03-28T10:33:18.343Z,21.00
2023-03-28T10:36:02.657Z,18.80
2023-03-28T10:38:43.156Z,18.50
2023-03-28T10:41:12.744Z,18.00
2023-03-28T10:43:41.421Z,17.40
2023-03-28T10:46:19.742Z,19.50
2023-03-28T10:49:07.220Z,21.40
2023-03-28T10:51:37.532Z,21.10
2023-03-28T10:54:46.500Z,23.80
2023-03-28T10:57:35.713Z,22.90
2023-03-28T11:00:14.713Z,24.70
2023-03-28T11:03:27.726Z,23.50
2023-03-28T11:06:10.485Z,23.60
2023-03-28T11:09:09.542Z,26.10
2023-03-28T11:11:48.308Z,24.50
2023-03-28T11:14:22.755Z,24.50
2023-03-28T11:16:56.076Z,21.80
2023-03-28T11:19:49.422Z,18.90
2023-03-28T11:22:45.833Z,21.70
2023-03-28T11:25:56.415Z,23.60
2023-03-28T11:28:52.859Z,21.70
2023-03-28T11:31:37.874Z,23.10
2023-03-28T11:34:13.305Z,20.50
2023-03-28T11:37:11.015Z,19.30
2023-03-28T11:40:08.465Z,19.50
2023-03-28T11:42:36.621Z,19.90
2023-03-28T11:45:23.676Z,18.70
2023-03-28T11:48:18.542Z,18.30
2023-03-28T11:51:13.159Z,21.20
2023-03-28T11:54:04.416Z,20.60
2023-03-28T11:56:54.949Z,19.60
2023-03-28T11:59:31.467Z,18.30
2023-03-28T12:02:15.509Z,18.50
2023-03-28T12:04:50.219Z,18.30
2023-03-28T12:07:36.189Z,18.20
2023-03-28T12:10:18.193Z,18.10
2023-03-28T12:13:11.155Z,16.70
2023-03-28T12:15:52.927Z,19.00
2023-03-28T12:18:41.263Z,18.00
2023-03-28T12:21:18.796Z,17.40
2023-03-28T12:23:54.155Z,17.70
2023-03-28T12:26:35.566Z,19.50
2023-03-28T12:29:13.617Z,17.90
2023-03-28T12:31:53.245Z,19.40
2023-03-28T12:34:28.941Z,18.80
2023-03-28T12:37:06.176Z,21.80
2023-03-28T12:39:45.834Z,18.60
2023-03-28T12:42:14.485Z,18.40
2023-03-28T12:44:51.994Z,19.40
2023-03-28T12:47:26.371Z,18.80
2023-03-28T12:49:59.414Z,18.00
2023-03-28T12:52:31.901Z,17.80
2023-03-28T12:55:27.932Z,18.80
2023-03-28T12:58:21.718Z,18.80
2023-03-28T13:01:07.397Z,19.20
2023-03-28T13:03:44.177Z,18.40
2023-03-28T13:06:46.420Z,17.70
2023-03-28T13:09:31.673Z,19.20
2023-03-28T13:12:20.662Z,18.10
2023-03-28T13:15:03.053Z,18.00
2023-03-28T13:17:32.913Z,19.90
2023-03-28T13:20:25.699Z,18.70
2023-03-28T13:22:58.338Z,17.70
2023-03-28T13:25:27.380Z,17.00
2023-03-28T13:28:16.813Z,18.70
2023-03-28T13:31:02.817Z,18.40
2023-03-28T13:33:33.366Z,19.00
2023-03-28T13:36:00.056Z,21.10
2023-03-28T13:38:29.967Z,21.60
2023-03-28T13:41:10.607Z,19.40
2023-03-28T13:43:48.193Z,22.00
2023-03-28T13:46:19.134Z,20.00
2023-03-28T13:49:10.281Z,19.50
2023-03-28T13:51:43.277Z,21.80
2023-03-28T13:54:11.731Z,19.30
2023-03-28T13:56:41.989Z,19.70
2023-03-28T13:59:16.626Z,22.80
2023-03-28T14:02:00.645Z,23.10
2023-03-28T14:04:30.838Z,21.20
2023-03-28T14:06:58.151Z,21.80
2023-03-28T14:09:28.200Z,21.80
2023-03-28T14:12:14.318Z,20.60
2023-03-28T14:14:57.872Z,21.50
2023-03-28T14:17:28.198Z,22.20
2023-03-28T14:20:05.498Z,20.40
2023-03-28T14:22:43.212Z,20.00
2023-03-28T14:25:21.470Z,21.20
2023-03-28T14:27:56.724Z,21.10
2023-03-28T14:30:37.294Z,23.60
2023-03-28T14:33:14.154Z,22.00
2023-03-28T14:35:48.329Z,20.20
2023-03-28T14:38:32.061Z,22.20
2023-03-28T14:41:19.265Z,23.60
2023-03-28T14:43:53.601Z,24.10
2023-03-28T14:46:32.976Z,22.70
2023-03-28T14:49:03.745Z,22.80
2023-03-28T14:51:41.054Z,21.90
2023-03-28T14:54:15.587Z,23.70
2023-03-28T14:56:43.995Z,21.80
2023-03-28T14:59:17.786Z,23.00
2023-03-28T15:01:47.958Z,22.20
2023-03-28T15:04:16.644Z,23.30
2023-03-28T15:06:43.315Z,22.60
2023-03-28T15:09:21.753Z,21.40
2023-03-28T15:11:48.467Z,22.50
2023-03-28T15:14:36.061Z,21.70
2023-03-28T15:17:03.423Z,21.80
2023-03-28T15:19:40.037Z,21.00
2023-03-28T15:22:12.872Z,22.80
2023-03-28T15:24:40.201Z,21.00
2023-03-28T15:27:12.242Z,23.60
2023-03-28T15:29:39.391Z,22.20
2023-03-28T15:32:13.234Z,22.50
2023-03-28T15:34:59.141Z,20.80
2023-03-28T15:37:27.129Z,22.50
2023-03-28T15:39:54.745Z,23.10
2023-03-28T15:42:22.084Z,22.20
2023-03-28T15:44:57.893Z,21.30
2023-03-28T15:47:30.192Z,22.30
2023-03-28T15:50:04.096Z,21.60
2023-03-28T15:52:31.682Z,23.30
2023-03-28T15:55:00.932Z,22.70
2023-03-28T15:57:30.019Z,22.90
2023-03-28T15:59:58.832Z,23.40
2023-03-28T16:02:25.732Z,23.20
2023-03-28T16:05:01.563Z,23.00
2023-03-28T16:07:49.090Z,23.90
2023-03-28T16:10:18.962Z,22.90
2023-03-28T16:12:46.755Z,22.30
2023-03-28T16:15:15.223Z,24.20
2023-03-28T16:17:43.198Z,22.20
2023-03-28T16:20:20.133Z,22.10
2023-03-28T16:22:47.198Z,21.20
2023-03-28T16:25:14.348Z,21.70
2023-03-28T16:27:42.863Z,22.70
2023-03-28T16:30:28.603Z,19.10
2023-03-28T16:32:55.882Z,19.10
2023-03-28T16:35:22.817Z,19.10
2023-03-28T16:37:49.634Z,19.20
2023-03-28T16:40:16.423Z,18.50
2023-03-28T16:42:43.240Z,18.90
2023-03-28T16:45:12.949Z,20.20
2023-03-28T16:47:40.233Z,19.90
2023-03-28T16:50:08.838Z,20.00
2023-03-28T16:52:39.247Z,19.70
2023-03-28T16:55:17.403Z,20.30
2023-03-28T16:57:44.652Z,21.30
2023-03-28T17:00:17.676Z,22.60
2023-03-28T17:02:46.069Z,21.70
2023-03-28T17:05:13.184Z,21.40
2023-03-28T17:07:39.931Z,22.80
2023-03-28T17:10:07.356Z,24.00
2023-03-28T17:12:34.385Z,24.00
2023-03-28T17:15:01.190Z,24.30
2023-03-28T17:17:27.965Z,25.10
2023-03-28T17:19:54.663Z,26.30
2023-03-28T17:22:21.422Z,27.20
2023-03-28T17:24:48.292Z,27.50
2023-03-28T17:27:15.334Z,27.70
2023-03-28T17:29:42.166Z,27.90
2023-03-28T17:32:09.011Z,28.80
2023-03-28T17:34:36.577Z,29.50
2023-03-28T17:37:04.218Z,30.10
2023-03-28T17:39:31.233Z,29.40
2023-03-28T17:41:57.942Z,29.00
2023-03-28T17:44:24.727Z,29.60
2023-03-28T17:46:51.926Z,29.70
2023-03-28T17:49:18.763Z,29.60
2023-03-28T17:51:45.577Z,30.10
2023-03-28T17:54:12.335Z,31.20
2023-03-28T17:56:39.889Z,30.50
2023-03-28T17:59:06.848Z,30.30
2023-03-28T18:01:33.767Z,30.00
2023-03-28T18:04:01.052Z,31.40
2023-03-28T18:06:27.856Z,32.50
2023-03-28T18:08:54.606Z,31.20
2023-03-28T18:11:22.940Z,31.30
2023-03-28T18:13:52.531Z,31.60
2023-03-28T18:16:19.323Z,32.70
2023-03-28T18:18:46.565Z,32.60
2023-03-28T18:21:13.322Z,33.20
2023-03-28T18:23:40.268Z,33.40
2023-03-28T18:26:08.025Z,33.60
2023-03-28T18:28:36.334Z,33.80
2023-03-28T18:31:18.065Z,34.20
2023-03-28T18:33:45.275Z,33.40
2023-03-28T18:36:13.555Z,33.20
2023-03-28T18:38:42.972Z,33.00
2023-03-28T18:41:11.218Z,33.60
2023-03-28T18:43:39.279Z,34.30
2023-03-28T18:46:09.656Z,33.80
2023-03-28T18:48:36.544Z,34.20
2023-03-28T18:51:06.141Z,35.00
2023-03-28T18:53:33.844Z,34.60
2023-03-28T18:56:01.452Z,35.00
2023-03-28T18:58:28.365Z,34.70
2023-03-28T19:00:58.486Z,35.00
2023-03-28T19:03:26.932Z,35.10
2023-03-28T19:05:56.066Z,35.20
2023-03-28T19:08:26.172Z,36.30
2023-03-28T19:10:54.208Z,36.00
2023-03-28T19:13:21.338Z,36.10
2023-03-28T19:15:57.068Z,36.00
2023-03-28T19:18:23.797Z,36.30
2023-03-28T19:20:51.931Z,36.50
2023-03-28T19:23:18.911Z,34.60
2023-03-28T19:25:45.604Z,35.10
2023-03-28T19:28:12.397Z,34.10
2023-03-28T19:30:39.462Z,35.70
2023-03-28T19:33:07.088Z,33.90
2023-03-28T19:35:33.940Z,33.10
2023-03-28T19:38:02.302Z,33.50
2023-03-28T19:40:29.976Z,33.50
2023-03-28T19:42:59.395Z,32.70
2023-03-28T19:45:26.735Z,33.10
2023-03-28T19:47:54.160Z,32.80
2023-03-28T19:50:21.021Z,33.90
2023-03-28T19:52:48.070Z,34.40
2023-03-28T19:55:15.172Z,33.60
2023-03-28T19:57:41.873Z,32.90
2023-03-28T20:00:11.328Z,33.20
2023-03-28T20:02:38.142Z,32.80
2023-03-28T20:05:05.216Z,32.60
2023-03-28T20:07:32.112Z,32.90
2023-03-28T20:09:59.873Z,33.00
2023-03-28T20:12:26.804Z,33.10
2023-03-28T20:14:55.042Z,33.50
2023-03-28T20:17:23.935Z,33.10
2023-03-28T20:19:51.619Z,33.00
2023-03-28T20:22:20.021Z,33.50
2023-03-28T20:24:48.633Z,33.30
2023-03-28T20:27:16.414Z,33.20
2023-03-28T20:29:43.061Z,33.30
2023-03-28T20:32:10.487Z,34.40
2023-03-28T20:34:37.162Z,35.30
2023-03-28T20:37:03.855Z,34.00
2023-03-28T20:39:34.095Z,35.10
2023-03-28T20:42:05.627Z,34.30
2023-03-28T20:44:38.055Z,33.60
2023-03-28T20:47:10.537Z,34.00
2023-03-28T20:49:38.357Z,34.10
2023-03-28T20:52:07.872Z,34.70
2023-03-28T20:54:35.047Z,34.00
2023-03-28T20:57:02.204Z,34.30
2023-03-28T20:59:29.111Z,34.70
2023-03-28T21:01:55.951Z,34.70
2023-03-28T21:04:23.026Z,34.90
2023-03-28T21:06:50.191Z,33.90
2023-03-28T21:09:18.053Z,33.70
2023-03-28T21:11:45.084Z,33.00
2023-03-28T21:14:13.541Z,32.60
2023-03-28T21:16:40.798Z,33.40
2023-03-28T21:19:08.134Z,33.40
2023-03-28T21:21:35.085Z,33.60
2023-03-28T21:24:03.375Z,34.00
2023-03-28T21:26:31.203Z,33.30
2023-03-28T21:28:57.929Z,34.20
2023-03-28T21:31:27.206Z,33.70
2023-03-28T21:33:56.912Z,33.30
2023-03-28T21:36:24.502Z,34.10
2023-03-28T21:38:51.501Z,34.80
2023-03-28T21:41:18.317Z,34.70
2023-03-28T21:43:44.952Z,34.10
2023-03-28T21:46:12.093Z,34.10
2023-03-28T21:48:39.273Z,34.50
2023-03-28T21:51:06.467Z,34.30
2023-03-28T21:53:36.281Z,35.20
2023-03-28T21:56:04.672Z,35.30
2023-03-28T21:58:33.319Z,34.70
2023-03-28T22:01:01.847Z,33.90
2023-03-28T22:03:29.104Z,33.90
2023-03-28T22:05:56.050Z,34.40
2023-03-28T22:08:23.617Z,34.70
2023-03-28T22:10:53.784Z,34.40
2023-03-28T22:13:21.354Z,34.30
2023-03-28T22:15:48.102Z,34.40
2023-03-28T22:18:15.677Z,34.60
2023-03-28T22:20:43.842Z,34.30
2023-03-28T22:23:11.227Z,35.50
2023-03-28T22:25:39.005Z,35.30
2023-03-28T22:28:08.444Z,36.10
2023-03-28T22:30:36.809Z,35.50
2023-03-28T22:33:04.466Z,34.60
2023-03-28T22:35:32.268Z,34.70
2023-03-28T22:37:59.918Z,34.40
2023-03-28T22:40:26.799Z,34.90
2023-03-28T22:42:54.120Z,34.80
2023-03-28T22:45:26.348Z,36.00
2023-03-28T22:47:53.639Z,36.10
2023-03-28T22:50:22.426Z,36.30
2023-03-28T22:52:54.938Z,35.70
2023-03-28T22:55:24.057Z,35.60
2023-03-28T22:57:52.455Z,36.30
2023-03-28T23:00:23.274Z,35.90
2023-03-28T23:02:51.761Z,37.40
2023-03-28T23:05:19.298Z,36.60
2023-03-28T23:07:46.072Z,37.60
2023-03-28T23:10:16.042Z,41.30
2023-03-28T23:12:43.466Z,45.90
2023-03-28T23:15:11.100Z,49.60
2023-03-28T23:17:38.744Z,51.60
2023-03-28T23:20:12.596Z,56.90
2023-03-28T23:22:40.916Z,60.30
2023-03-28T23:25:08.390Z,64.30
2023-03-28T23:27:35.305Z,67.10
2023-03-28T23:30:02.089Z,69.60
2023-03-28T23:32:28.979Z,72.70
2023-03-28T23:34:55.854Z,75.80
2023-03-28T23:37:26.078Z,77.70
2023-03-28T23:39:53.759Z,78.60
2023-03-28T23:42:20.721Z,80.10
2023-03-28T23:44:47.679Z,81.60
2023-03-28T23:47:14.685Z,82.20
2023-03-28T23:49:42.609Z,82.80
2023-03-28T23:52:12.614Z,84.10
2023-03-28T23:54:40.090Z,85.00
2023-03-28T23:57:07.879Z,85.20
2023-03-28T23:59:35.391Z,86.30
